sensor_id;sensor_type;location;lat;lon;timestamp;pressure;altitude;pressure_sealevel;temperature;humidity
63204;BME280;49297;43.210;27.914;2023-08-08T00:01:06;100705.09;;;23.27;47.84
63204;BME280;49297;43.210;27.914;2023-08-08T00:03:32;100700.94;;;23.24;47.25
63204;BME280;49297;43.210;27.914;2023-08-08T00:05:58;100708.22;;;23.24;46.53
63204;BME280;49297;43.210;27.914;2023-08-08T00:08:24;100704.69;;;23.23;46.48
63204;BME280;49297;43.210;27.914;2023-08-08T00:10:49;100710.53;;;23.20;46.20
63204;BME280;49297;43.210;27.914;2023-08-08T00:13:15;100713.88;;;23.15;46.42
63204;BME280;49297;43.210;27.914;2023-08-08T00:15:41;100720.13;;;23.16;46.68
63204;BME280;49297;43.210;27.914;2023-08-08T00:18:08;100717.44;;;23.16;47.00
63204;BME280;49297;43.210;27.914;2023-08-08T00:20:33;100710.97;;;23.17;47.47
63204;BME280;49297;43.210;27.914;2023-08-08T00:22:59;100709.34;;;23.16;48.21
63204;BME280;49297;43.210;27.914;2023-08-08T00:25:25;100703.34;;;23.14;48.52
63204;BME280;49297;43.210;27.914;2023-08-08T00:27:51;100704.59;;;23.11;48.61
63204;BME280;49297;43.210;27.914;2023-08-08T00:30:17;100711.88;;;23.11;48.00
63204;BME280;49297;43.210;27.914;2023-08-08T00:32:43;100709.19;;;23.04;47.72
63204;BME280;49297;43.210;27.914;2023-08-08T00:35:09;100704.00;;;23.03;47.75
63204;BME280;49297;43.210;27.914;2023-08-08T00:37:35;100707.53;;;23.03;47.69
63204;BME280;49297;43.210;27.914;2023-08-08T00:40:00;100701.94;;;23.05;47.19
63204;BME280;49297;43.210;27.914;2023-08-08T00:42:26;100705.03;;;23.08;47.13
63204;BME280;49297;43.210;27.914;2023-08-08T00:44:52;100707.06;;;23.13;46.41
63204;BME280;49297;43.210;27.914;2023-08-08T00:47:18;100710.81;;;23.12;46.64
63204;BME280;49297;43.210;27.914;2023-08-08T00:49:44;100706.25;;;23.12;46.38
63204;BME280;49297;43.210;27.914;2023-08-08T00:52:13;100713.88;;;23.15;46.33
63204;BME280;49297;43.210;27.914;2023-08-08T00:54:39;100705.34;;;23.18;46.20
63204;BME280;49297;43.210;27.914;2023-08-08T00:57:05;100706.41;;;23.17;45.81
63204;BME280;49297;43.210;27.914;2023-08-08T00:59:31;100709.94;;;23.18;45.94
63204;BME280;49297;43.210;27.914;2023-08-08T01:01:58;100702.88;;;23.17;45.50
63204;BME280;49297;43.210;27.914;2023-08-08T01:04:25;100717.22;;;23.17;45.48
63204;BME280;49297;43.210;27.914;2023-08-08T01:07:01;100715.56;;;23.16;45.22
63204;BME280;49297;43.210;27.914;2023-08-08T01:09:46;100725.53;;;23.16;44.94
63204;BME280;49297;43.210;27.914;2023-08-08T01:12:14;100727.16;;;23.17;44.68
63204;BME280;49297;43.210;27.914;2023-08-08T01:14:42;100728.88;;;23.11;44.08
63204;BME280;49297;43.210;27.914;2023-08-08T01:17:10;100721.00;;;23.10;44.23
63204;BME280;49297;43.210;27.914;2023-08-08T01:19:37;100718.31;;;23.10;43.95
63204;BME280;49297;43.210;27.914;2023-08-08T01:22:10;100713.75;;;23.10;43.90
63204;BME280;49297;43.210;27.914;2023-08-08T01:24:40;100703.78;;;23.04;43.82
63204;BME280;49297;43.210;27.914;2023-08-08T01:27:06;100713.75;;;23.04;44.04
63204;BME280;49297;43.210;27.914;2023-08-08T01:29:32;100711.50;;;23.00;43.78
63204;BME280;49297;43.210;27.914;2023-08-08T01:31:58;100715.00;;;23.01;44.18
63204;BME280;49297;43.210;27.914;2023-08-08T01:34:24;100713.59;;;22.98;44.24
63204;BME280;49297;43.210;27.914;2023-08-08T01:37:01;100703.84;;;22.97;44.43
63204;BME280;49297;43.210;27.914;2023-08-08T01:39:30;100704.47;;;22.99;44.75
63204;BME280;49297;43.210;27.914;2023-08-08T01:41:59;100700.47;;;23.02;44.77
63204;BME280;49297;43.210;27.914;2023-08-08T01:44:25;100695.09;;;23.02;44.62
63204;BME280;49297;43.210;27.914;2023-08-08T01:46:53;100704.00;;;23.03;44.74
63204;BME280;49297;43.210;27.914;2023-08-08T01:49:19;100702.78;;;23.05;44.98
63204;BME280;49297;43.210;27.914;2023-08-08T01:51:45;100699.88;;;23.07;45.14
63204;BME280;49297;43.210;27.914;2023-08-08T01:54:11;100701.06;;;23.11;45.27
63204;BME280;49297;43.210;27.914;2023-08-08T01:56:37;100700.84;;;23.12;45.14
63204;BME280;49297;43.210;27.914;2023-08-08T01:59:02;100707.66;;;23.15;45.38
63204;BME280;49297;43.210;27.914;2023-08-08T02:01:28;100697.31;;;23.12;45.45
63204;BME280;49297;43.210;27.914;2023-08-08T02:03:54;100708.09;;;23.12;45.73
63204;BME280;49297;43.210;27.914;2023-08-08T02:06:20;100710.81;;;23.12;46.01
63204;BME280;49297;43.210;27.914;2023-08-08T02:08:45;100709.97;;;23.11;45.56
63204;BME280;49297;43.210;27.914;2023-08-08T02:11:12;100703.38;;;23.07;45.99
63204;BME280;49297;43.210;27.914;2023-08-08T02:13:37;100705.88;;;23.09;45.96
63204;BME280;49297;43.210;27.914;2023-08-08T02:16:03;100700.00;;;23.12;45.95
63204;BME280;49297;43.210;27.914;2023-08-08T02:18:29;100705.88;;;23.09;46.30
63204;BME280;49297;43.210;27.914;2023-08-08T02:20:55;100699.88;;;23.07;46.29
63204;BME280;49297;43.210;27.914;2023-08-08T02:23:21;100702.56;;;23.07;46.33
63204;BME280;49297;43.210;27.914;2023-08-08T02:25:47;100711.50;;;23.00;46.55
63204;BME280;49297;43.210;27.914;2023-08-08T02:28:13;100710.50;;;22.95;46.51
63204;BME280;49297;43.210;27.914;2023-08-08T02:30:39;100712.38;;;22.94;47.14
63204;BME280;49297;43.210;27.914;2023-08-08T02:33:04;100714.47;;;22.92;47.20
63204;BME280;49297;43.210;27.914;2023-08-08T02:35:33;100716.75;;;22.89;47.17
63204;BME280;49297;43.210;27.914;2023-08-08T02:37:59;100716.38;;;22.85;47.32
63204;BME280;49297;43.210;27.914;2023-08-08T02:40:25;100734.63;;;22.90;47.38
63204;BME280;49297;43.210;27.914;2023-08-08T02:42:52;100754.97;;;22.92;47.82
63204;BME280;49297;43.210;27.914;2023-08-08T02:45:18;100752.69;;;22.89;47.57
63204;BME280;49297;43.210;27.914;2023-08-08T02:47:43;100747.09;;;22.91;47.81
63204;BME280;49297;43.210;27.914;2023-08-08T02:50:09;100755.81;;;22.86;47.86
63204;BME280;49297;43.210;27.914;2023-08-08T02:52:35;100760.88;;;22.76;48.33
63204;BME280;49297;43.210;27.914;2023-08-08T02:55:01;100757.75;;;22.79;48.55
63204;BME280;49297;43.210;27.914;2023-08-08T02:57:28;100760.06;;;22.75;48.58
63204;BME280;49297;43.210;27.914;2023-08-08T02:59:53;100753.22;;;22.73;48.74
63204;BME280;49297;43.210;27.914;2023-08-08T03:02:19;100754.66;;;22.75;48.60
63204;BME280;49297;43.210;27.914;2023-08-08T03:04:45;100758.84;;;22.71;49.00
63204;BME280;49297;43.210;27.914;2023-08-08T03:07:11;100758.22;;;22.69;49.17
63204;BME280;49297;43.210;27.914;2023-08-08T03:09:36;100769.25;;;22.68;49.07
63204;BME280;49297;43.210;27.914;2023-08-08T03:12:02;100760.94;;;22.69;49.02
63204;BME280;49297;43.210;27.914;2023-08-08T03:14:28;100762.38;;;22.65;49.15
63204;BME280;49297;43.210;27.914;2023-08-08T03:16:54;100760.78;;;22.57;49.55
63204;BME280;49297;43.210;27.914;2023-08-08T03:19:21;100763.06;;;22.60;49.74
63204;BME280;49297;43.210;27.914;2023-08-08T03:21:46;100773.19;;;22.65;49.68
63204;BME280;49297;43.210;27.914;2023-08-08T03:24:12;100774.84;;;22.66;49.83
63204;BME280;49297;43.210;27.914;2023-08-08T03:26:38;100772.34;;;22.65;49.81
63204;BME280;49297;43.210;27.914;2023-08-08T03:29:03;100784.19;;;22.63;49.99
63204;BME280;49297;43.210;27.914;2023-08-08T03:31:29;100780.44;;;22.65;49.90
63204;BME280;49297;43.210;27.914;2023-08-08T03:33:55;100784.63;;;22.60;50.51
63204;BME280;49297;43.210;27.914;2023-08-08T03:36:20;100785.44;;;22.61;50.36
63204;BME280;49297;43.210;27.914;2023-08-08T03:38:46;100789.38;;;22.65;50.39
63204;BME280;49297;43.210;27.914;2023-08-08T03:41:13;100783.97;;;22.65;50.50
63204;BME280;49297;43.210;27.914;2023-08-08T03:43:39;100783.53;;;22.68;50.47
63204;BME280;49297;43.210;27.914;2023-08-08T03:46:05;100789.97;;;22.67;50.62
63204;BME280;49297;43.210;27.914;2023-08-08T03:48:31;100784.19;;;22.63;50.52
63204;BME280;49297;43.210;27.914;2023-08-08T03:50:57;100792.66;;;22.67;50.63
63204;BME280;49297;43.210;27.914;2023-08-08T03:53:22;100785.81;;;22.71;50.36
63204;BME280;49297;43.210;27.914;2023-08-08T03:55:48;100796.16;;;22.74;50.67
63204;BME280;49297;43.210;27.914;2023-08-08T03:58:14;100799.72;;;22.75;50.71
63204;BME280;49297;43.210;27.914;2023-08-08T04:00:39;100796.78;;;22.76;50.55
63204;BME280;49297;43.210;27.914;2023-08-08T04:03:15;100801.13;;;22.77;50.71
63204;BME280;49297;43.210;27.914;2023-08-08T04:05:44;100803.41;;;22.80;50.23
63204;BME280;49297;43.210;27.914;2023-08-08T04:08:12;100809.66;;;22.74;50.55
63204;BME280;49297;43.210;27.914;2023-08-08T04:10:37;100814.63;;;22.77;50.43
63204;BME280;49297;43.210;27.914;2023-08-08T04:13:03;100823.19;;;22.68;50.81
63204;BME280;49297;43.210;27.914;2023-08-08T04:15:29;100827.75;;;22.67;50.86
63204;BME280;49297;43.210;27.914;2023-08-08T04:17:55;100827.59;;;22.62;51.04
63204;BME280;49297;43.210;27.914;2023-08-08T04:20:20;100834.69;;;22.50;51.61
63204;BME280;49297;43.210;27.914;2023-08-08T04:22:46;100836.78;;;22.41;51.66
63204;BME280;49297;43.210;27.914;2023-08-08T04:25:12;100839.69;;;22.39;51.77
63204;BME280;49297;43.210;27.914;2023-08-08T04:27:39;100847.38;;;22.42;52.14
63204;BME280;49297;43.210;27.914;2023-08-08T04:30:05;100840.72;;;22.38;52.29
63204;BME280;49297;43.210;27.914;2023-08-08T04:32:31;100835.78;;;22.35;52.06
63204;BME280;49297;43.210;27.914;2023-08-08T04:34:57;100841.59;;;22.32;52.62
63204;BME280;49297;43.210;27.914;2023-08-08T04:37:22;100839.31;;;22.36;52.43
63204;BME280;49297;43.210;27.914;2023-08-08T04:39:48;100842.19;;;22.41;52.47
63204;BME280;49297;43.210;27.914;2023-08-08T04:42:14;100850.91;;;22.36;52.65
63204;BME280;49297;43.210;27.914;2023-08-08T04:44:39;100845.72;;;22.35;52.68
63204;BME280;49297;43.210;27.914;2023-08-08T04:47:05;100853.59;;;22.36;53.21
63204;BME280;49297;43.210;27.914;2023-08-08T04:49:31;100863.78;;;22.41;52.82
63204;BME280;49297;43.210;27.914;2023-08-08T04:51:56;100860.63;;;22.44;53.02
63204;BME280;49297;43.210;27.914;2023-08-08T04:54:22;100859.78;;;22.50;52.92
63204;BME280;49297;43.210;27.914;2023-08-08T04:56:48;100868.50;;;22.52;52.87
63204;BME280;49297;43.210;27.914;2023-08-08T04:59:14;100874.28;;;22.56;52.89
63204;BME280;49297;43.210;27.914;2023-08-08T05:01:39;100864.97;;;22.58;52.76
63204;BME280;49297;43.210;27.914;2023-08-08T05:04:05;100874.69;;;22.59;52.74
63204;BME280;49297;43.210;27.914;2023-08-08T05:06:31;100874.09;;;22.57;53.08
63204;BME280;49297;43.210;27.914;2023-08-08T05:08:56;100874.28;;;22.56;53.01
63204;BME280;49297;43.210;27.914;2023-08-08T05:11:23;100878.22;;;22.60;53.01
63204;BME280;49297;43.210;27.914;2023-08-08T05:13:49;100880.09;;;22.59;52.97
63204;BME280;49297;43.210;27.914;2023-08-08T05:16:15;100874.91;;;22.58;53.08
63204;BME280;49297;43.210;27.914;2023-08-08T05:18:41;100873.25;;;22.57;53.18
63204;BME280;49297;43.210;27.914;2023-08-08T05:21:09;100879.47;;;22.57;53.40
63204;BME280;49297;43.210;27.914;2023-08-08T05:23:35;100880.09;;;22.59;53.29
63204;BME280;49297;43.210;27.914;2023-08-08T05:26:01;100887.75;;;22.62;53.31
63204;BME280;49297;43.210;27.914;2023-08-08T05:28:26;100888.97;;;22.67;53.18
63204;BME280;49297;43.210;27.914;2023-08-08T05:30:52;100903.28;;;22.67;53.21
63204;BME280;49297;43.210;27.914;2023-08-08T05:33:18;100902.06;;;22.63;53.46
63204;BME280;49297;43.210;27.914;2023-08-08T05:35:44;100909.53;;;22.68;53.48
63204;BME280;49297;43.210;27.914;2023-08-08T05:38:10;100918.25;;;22.63;53.60
63204;BME280;49297;43.210;27.914;2023-08-08T05:40:36;100921.78;;;22.63;53.45
63204;BME280;49297;43.210;27.914;2023-08-08T05:43:03;100922.03;;;22.62;53.78
63204;BME280;49297;43.210;27.914;2023-08-08T05:45:29;100930.69;;;22.71;53.68
63204;BME280;49297;43.210;27.914;2023-08-08T05:47:55;100935.84;;;22.79;54.04
63204;BME280;49297;43.210;27.914;2023-08-08T05:50:21;100951.03;;;22.80;53.73
63204;BME280;49297;43.210;27.914;2023-08-08T05:52:48;100949.56;;;22.77;53.37
63204;BME280;49297;43.210;27.914;2023-08-08T05:55:14;100948.13;;;22.75;53.78
63204;BME280;49297;43.210;27.914;2023-08-08T05:57:40;100951.03;;;22.80;53.85
63204;BME280;49297;43.210;27.914;2023-08-08T06:00:06;100967.81;;;22.82;53.76
63204;BME280;49297;43.210;27.914;2023-08-08T06:02:35;100953.72;;;22.80;53.59
63204;BME280;49297;43.210;27.914;2023-08-08T06:05:00;100967.88;;;22.62;53.90
63204;BME280;49297;43.210;27.914;2023-08-08T06:07:26;100987.59;;;22.62;54.04
63204;BME280;49297;43.210;27.914;2023-08-08T06:09:52;100977.19;;;22.66;54.05
63204;BME280;49297;43.210;27.914;2023-08-08T06:12:18;100977.81;;;22.68;53.61
63204;BME280;49297;43.210;27.914;2023-08-08T06:14:43;100980.53;;;22.61;53.70
63204;BME280;49297;43.210;27.914;2023-08-08T06:17:09;100996.50;;;22.56;53.90
63204;BME280;49297;43.210;27.914;2023-08-08T06:19:35;101007.75;;;22.53;54.02
63204;BME280;49297;43.210;27.914;2023-08-08T06:22:00;101001.91;;;22.56;54.30
63204;BME280;49297;43.210;27.914;2023-08-08T06:24:28;100993.19;;;22.61;54.03
63204;BME280;49297;43.210;27.914;2023-08-08T06:26:54;100993.19;;;22.54;54.10
63204;BME280;49297;43.210;27.914;2023-08-08T06:29:20;100980.97;;;22.52;54.19
63204;BME280;49297;43.210;27.914;2023-08-08T06:31:46;101002.75;;;22.57;53.94
63204;BME280;49297;43.210;27.914;2023-08-08T06:34:11;100986.16;;;22.47;54.06
63204;BME280;49297;43.210;27.914;2023-08-08T06:36:37;100989.47;;;22.42;54.17
63204;BME280;49297;43.210;27.914;2023-08-08T06:39:03;100995.94;;;22.41;53.66
63204;BME280;49297;43.210;27.914;2023-08-08T06:41:29;101003.81;;;22.36;53.74
63204;BME280;49297;43.210;27.914;2023-08-08T06:43:56;101011.91;;;22.36;53.37
63204;BME280;49297;43.210;27.914;2023-08-08T06:46:22;100996.53;;;22.36;53.02
63204;BME280;49297;43.210;27.914;2023-08-08T06:48:50;101010.03;;;22.36;52.81
63204;BME280;49297;43.210;27.914;2023-08-08T06:51:18;101006.50;;;22.29;53.07
63204;BME280;49297;43.210;27.914;2023-08-08T06:53:44;101018.53;;;22.27;53.00
63204;BME280;49297;43.210;27.914;2023-08-08T06:56:09;101022.22;;;22.25;53.23
63204;BME280;49297;43.210;27.914;2023-08-08T06:58:37;101017.91;;;22.31;52.59
63204;BME280;49297;43.210;27.914;2023-08-08T07:01:02;101024.97;;;22.32;52.47
63204;BME280;49297;43.210;27.914;2023-08-08T07:03:28;101034.72;;;22.27;52.86
63204;BME280;49297;43.210;27.914;2023-08-08T07:05:54;101030.78;;;22.29;52.96
63204;BME280;49297;43.210;27.914;2023-08-08T07:08:20;101022.69;;;22.36;52.81
63204;BME280;49297;43.210;27.914;2023-08-08T07:10:47;101029.94;;;22.42;52.96
63204;BME280;49297;43.210;27.914;2023-08-08T07:13:14;101033.66;;;22.54;52.32
63204;BME280;49297;43.210;27.914;2023-08-08T07:15:41;101040.94;;;22.60;52.54
63204;BME280;49297;43.210;27.914;2023-08-08T07:18:07;101032.81;;;22.74;52.03
63204;BME280;49297;43.210;27.914;2023-08-08T07:20:33;101042.53;;;22.81;51.97
63204;BME280;49297;43.210;27.914;2023-08-08T07:22:59;101032.34;;;22.90;51.71
63204;BME280;49297;43.210;27.914;2023-08-08T07:25:25;101041.25;;;22.97;51.43
63204;BME280;49297;43.210;27.914;2023-08-08T07:27:51;101045.63;;;22.98;51.17
63204;BME280;49297;43.210;27.914;2023-08-08T07:30:17;101040.63;;;23.02;50.75
63204;BME280;49297;43.210;27.914;2023-08-08T07:32:43;101042.50;;;23.15;50.50
63204;BME280;49297;43.210;27.914;2023-08-08T07:35:08;101050.38;;;23.23;50.08
63204;BME280;49297;43.210;27.914;2023-08-08T07:37:35;101041.84;;;23.26;49.27
63204;BME280;49297;43.210;27.914;2023-08-08T07:40:02;101056.38;;;23.25;49.46
63204;BME280;49297;43.210;27.914;2023-08-08T07:42:29;101064.91;;;23.22;49.50
63204;BME280;49297;43.210;27.914;2023-08-08T07:44:55;101057.84;;;23.21;49.10
63204;BME280;49297;43.210;27.914;2023-08-08T07:47:21;101056.59;;;23.24;48.68
63204;BME280;49297;43.210;27.914;2023-08-08T07:49:47;101062.81;;;23.24;47.96
63204;BME280;49297;43.210;27.914;2023-08-08T07:52:12;101072.19;;;23.15;48.26
63204;BME280;49297;43.210;27.914;2023-08-08T07:54:38;101068.66;;;23.14;48.16
63204;BME280;49297;43.210;27.914;2023-08-08T07:57:04;101064.91;;;23.15;48.52
63204;BME280;49297;43.210;27.914;2023-08-08T07:59:30;101067.44;;;23.10;48.50
63204;BME280;49297;43.210;27.914;2023-08-08T08:01:56;101067.03;;;23.00;48.75
63204;BME280;49297;43.210;27.914;2023-08-08T08:04:21;101060.59;;;22.94;49.02
63204;BME280;49297;43.210;27.914;2023-08-08T08:06:47;101064.31;;;22.93;49.16
63204;BME280;49297;43.210;27.914;2023-08-08T08:09:13;101069.09;;;22.91;49.03
63204;BME280;49297;43.210;27.914;2023-08-08T08:11:39;101064.97;;;22.82;49.52
63204;BME280;49297;43.210;27.914;2023-08-08T08:14:05;101060.41;;;22.89;49.30
63204;BME280;49297;43.210;27.914;2023-08-08T08:16:33;101064.72;;;23.04;48.81
63204;BME280;49297;43.210;27.914;2023-08-08T08:18:59;101054.97;;;23.09;48.79
63204;BME280;49297;43.210;27.914;2023-08-08T08:21:25;101058.28;;;23.18;48.05
63204;BME280;49297;43.210;27.914;2023-08-08T08:23:50;101060.09;;;23.31;47.66
63204;BME280;49297;43.210;27.914;2023-08-08T08:26:16;101055.09;;;23.34;47.54
63204;BME280;49297;43.210;27.914;2023-08-08T08:28:42;101065.47;;;23.44;47.56
63204;BME280;49297;43.210;27.914;2023-08-08T08:31:08;101056.47;;;23.50;48.20
63204;BME280;49297;43.210;27.914;2023-08-08T08:33:34;101050.16;;;23.63;47.95
63204;BME280;49297;43.210;27.914;2023-08-08T08:36:00;101049.75;;;23.66;48.26
63204;BME280;49297;43.210;27.914;2023-08-08T08:38:26;101065.31;;;23.71;47.84
63204;BME280;49297;43.210;27.914;2023-08-08T08:40:54;101062.16;;;23.74;47.90
63204;BME280;49297;43.210;27.914;2023-08-08T08:43:22;101056.44;;;23.64;48.52
63204;BME280;49297;43.210;27.914;2023-08-08T08:45:52;101060.97;;;23.63;48.46
63204;BME280;49297;43.210;27.914;2023-08-08T08:48:18;101063.69;;;23.63;48.35
63204;BME280;49297;43.210;27.914;2023-08-08T08:50:48;101073.69;;;23.63;48.84
63204;BME280;49297;43.210;27.914;2023-08-08T08:53:15;101060.38;;;23.61;49.05
63204;BME280;49297;43.210;27.914;2023-08-08T08:55:41;101053.09;;;23.62;48.68
63204;BME280;49297;43.210;27.914;2023-08-08T08:58:07;101051.66;;;23.59;49.00
63204;BME280;49297;43.210;27.914;2023-08-08T09:00:34;101052.66;;;23.65;49.04
63204;BME280;49297;43.210;27.914;2023-08-08T09:03:00;101056.59;;;23.69;48.55
63204;BME280;49297;43.210;27.914;2023-08-08T09:05:26;101056.25;;;23.52;48.42
63204;BME280;49297;43.210;27.914;2023-08-08T09:08:00;101054.06;;;23.35;48.96
63204;BME280;49297;43.210;27.914;2023-08-08T09:10:30;101058.00;;;23.33;48.74
63204;BME280;49297;43.210;27.914;2023-08-08T09:12:57;101061.75;;;23.32;49.04
63204;BME280;49297;43.210;27.914;2023-08-08T09:15:23;101060.31;;;23.29;48.73
63204;BME280;49297;43.210;27.914;2023-08-08T09:17:49;101071.97;;;23.23;49.23
63204;BME280;49297;43.210;27.914;2023-08-08T09:20:17;101078.84;;;23.12;49.09
63204;BME280;49297;43.210;27.914;2023-08-08T09:22:42;101074.50;;;22.98;49.33
63204;BME280;49297;43.210;27.914;2023-08-08T09:25:08;101083.88;;;22.82;50.40
63204;BME280;49297;43.210;27.914;2023-08-08T09:27:35;101088.44;;;22.75;50.76
63204;BME280;49297;43.210;27.914;2023-08-08T09:30:01;101087.00;;;22.66;51.30
63204;BME280;49297;43.210;27.914;2023-08-08T09:32:30;101082.44;;;22.59;51.63
63204;BME280;49297;43.210;27.914;2023-08-08T09:34:57;101077.44;;;22.63;51.02
63204;BME280;49297;43.210;27.914;2023-08-08T09:37:23;101077.84;;;22.73;51.16
63204;BME280;49297;43.210;27.914;2023-08-08T09:39:59;101088.25;;;22.76;50.81
63204;BME280;49297;43.210;27.914;2023-08-08T09:42:28;101085.53;;;22.63;51.20
63204;BME280;49297;43.210;27.914;2023-08-08T09:44:58;101077.84;;;22.67;50.83
63204;BME280;49297;43.210;27.914;2023-08-08T09:47:25;101082.63;;;22.78;50.60
63204;BME280;49297;43.210;27.914;2023-08-08T09:49:59;101085.53;;;22.76;50.73
63204;BME280;49297;43.210;27.914;2023-08-08T09:52:27;101088.44;;;22.68;50.89
63204;BME280;49297;43.210;27.914;2023-08-08T09:54:54;101073.94;;;22.56;50.94
63204;BME280;49297;43.210;27.914;2023-08-08T09:57:22;101073.09;;;22.55;50.94
63204;BME280;49297;43.210;27.914;2023-08-08T09:59:48;101084.09;;;22.47;51.50
63204;BME280;49297;43.210;27.914;2023-08-08T10:02:15;101079.72;;;22.33;51.21
63204;BME280;49297;43.210;27.914;2023-08-08T10:04:41;101074.53;;;22.31;51.53
63204;BME280;49297;43.210;27.914;2023-08-08T10:07:07;101065.81;;;22.29;52.06
63204;BME280;49297;43.210;27.914;2023-08-08T10:09:33;101079.72;;;22.33;51.97
63204;BME280;49297;43.210;27.914;2023-08-08T10:11:59;101087.41;;;22.36;51.21
63204;BME280;49297;43.210;27.914;2023-08-08T10:14:31;101084.50;;;22.31;51.58
63204;BME280;49297;43.210;27.914;2023-08-08T10:16:57;101085.13;;;22.33;51.92
63204;BME280;49297;43.210;27.914;2023-08-08T10:19:23;101084.94;;;22.41;51.70
63204;BME280;49297;43.210;27.914;2023-08-08T10:21:57;101083.88;;;22.49;51.48
63204;BME280;49297;43.210;27.914;2023-08-08T10:24:35;101093.41;;;22.51;51.80
63204;BME280;49297;43.210;27.914;2023-08-08T10:27:03;101081.59;;;22.52;51.48
63204;BME280;49297;43.210;27.914;2023-08-08T10:29:31;101076.41;;;22.57;51.64
63204;BME280;49297;43.210;27.914;2023-08-08T10:31:59;101075.19;;;22.53;51.54
63204;BME280;49297;43.210;27.914;2023-08-08T10:34:40;101076.63;;;22.42;51.84
63204;BME280;49297;43.210;27.914;2023-08-08T10:37:11;101083.66;;;22.37;51.53
63204;BME280;49297;43.210;27.914;2023-08-08T10:39:38;101087.59;;;22.28;51.34
63204;BME280;49297;43.210;27.914;2023-08-08T10:42:18;101097.56;;;22.27;51.46
63204;BME280;49297;43.210;27.914;2023-08-08T10:44:54;101106.66;;;22.19;52.19
63204;BME280;49297;43.210;27.914;2023-08-08T10:47:24;101113.88;;;22.05;52.25
63204;BME280;49297;43.210;27.914;2023-08-08T10:50:22;101117.78;;;21.90;52.94
63204;BME280;49297;43.210;27.914;2023-08-08T10:55:31;101118.94;;;21.67;53.69
63204;BME280;49297;43.210;27.914;2023-08-08T11:00:31;101129.63;;;21.47;54.43
63204;BME280;49297;43.210;27.914;2023-08-08T11:02:58;101118.41;;;21.43;54.20
63204;BME280;49297;43.210;27.914;2023-08-08T11:05:27;101128.09;;;21.38;54.70
63204;BME280;49297;43.210;27.914;2023-08-08T11:07:58;101114.03;;;21.42;54.73
63204;BME280;49297;43.210;27.914;2023-08-08T11:10:24;101115.16;;;21.48;54.76
63204;BME280;49297;43.210;27.914;2023-08-08T11:13:00;101124.59;;;21.44;54.93
63204;BME280;49297;43.210;27.914;2023-08-08T11:15:27;101128.06;;;21.31;55.91
63204;BME280;49297;43.210;27.914;2023-08-08T11:17:55;101118.88;;;21.19;57.01
63204;BME280;49297;43.210;27.914;2023-08-08T11:20:22;101117.13;;;21.04;58.01
63204;BME280;49297;43.210;27.914;2023-08-08T11:22:55;101119.13;;;20.96;59.33
63204;BME280;49297;43.210;27.914;2023-08-08T11:25:22;101121.00;;;20.95;60.06
63204;BME280;49297;43.210;27.914;2023-08-08T11:27:55;101129.91;;;20.96;59.68
63204;BME280;49297;43.210;27.914;2023-08-08T11:30:22;101131.16;;;21.00;59.69
63204;BME280;49297;43.210;27.914;2023-08-08T11:32:50;101141.53;;;21.03;59.60
63204;BME280;49297;43.210;27.914;2023-08-08T11:35:22;101137.66;;;21.12;59.84
63204;BME280;49297;43.210;27.914;2023-08-08T11:37:52;101135.84;;;21.13;60.01
63204;BME280;49297;43.210;27.914;2023-08-08T11:40:19;101127.78;;;21.19;59.73
63204;BME280;49297;43.210;27.914;2023-08-08T11:42:46;101122.69;;;21.31;59.81
63204;BME280;49297;43.210;27.914;2023-08-08T11:45:13;101129.75;;;21.39;59.65
63204;BME280;49297;43.210;27.914;2023-08-08T11:47:42;101126.75;;;21.48;59.73
63204;BME280;49297;43.210;27.914;2023-08-08T11:50:09;101129.25;;;21.57;60.03
63204;BME280;49297;43.210;27.914;2023-08-08T11:52:40;101133.47;;;21.73;59.95
63204;BME280;49297;43.210;27.914;2023-08-08T11:55:08;101126.94;;;22.02;59.27
63204;BME280;49297;43.210;27.914;2023-08-08T11:57:36;101118.97;;;22.49;58.21
63204;BME280;49297;43.210;27.914;2023-08-08T12:00:04;101112.38;;;23.56;55.72
63204;BME280;49297;43.210;27.914;2023-08-08T12:02:35;101107.25;;;24.76;52.34
63204;BME280;49297;43.210;27.914;2023-08-08T12:05:11;101114.31;;;25.76;50.38
63204;BME280;49297;43.210;27.914;2023-08-08T12:07:40;101108.56;;;26.56;47.54
63204;BME280;49297;43.210;27.914;2023-08-08T12:10:23;101089.03;;;27.42;43.89
63204;BME280;49297;43.210;27.914;2023-08-08T12:12:55;101099.28;;;27.81;43.41
63204;BME280;49297;43.210;27.914;2023-08-08T12:15:23;101084.72;;;28.16;41.58
63204;BME280;49297;43.210;27.914;2023-08-08T12:17:49;101104.09;;;28.53;40.04
63204;BME280;49297;43.210;27.914;2023-08-08T12:20:15;101089.66;;;28.86;37.82
63204;BME280;49297;43.210;27.914;2023-08-08T12:22:41;101086.13;;;29.08;36.97
63204;BME280;49297;43.210;27.914;2023-08-08T12:25:07;101084.97;;;29.21;36.80
63204;BME280;49297;43.210;27.914;2023-08-08T12:27:34;101092.88;;;29.67;35.78
63204;BME280;49297;43.210;27.914;2023-08-08T12:30:00;101081.16;;;30.26;34.97
63204;BME280;49297;43.210;27.914;2023-08-08T12:32:27;101072.22;;;30.73;34.01
63204;BME280;49297;43.210;27.914;2023-08-08T12:34:55;101080.69;;;31.14;32.75
63204;BME280;49297;43.210;27.914;2023-08-08T12:37:22;101076.31;;;31.13;31.46
63204;BME280;49297;43.210;27.914;2023-08-08T12:39:49;101080.47;;;31.26;31.79
63204;BME280;49297;43.210;27.914;2023-08-08T12:42:15;101065.72;;;31.37;31.92
63204;BME280;49297;43.210;27.914;2023-08-08T12:44:41;101067.94;;;31.45;31.86